createdAt,value
2023-06-21T00:00:00.665Z,10.60
2023-06-21T00:02:29.637Z,10.07
2023-06-21T00:04:59.490Z,10.15
2023-06-21T00:07:26.263Z,10.23
2023-06-21T00:09:53.554Z,9.90
2023-06-21T00:12:21.581Z,10.23
2023-06-21T00:14:48.476Z,10.10
2023-06-21T00:17:15.244Z,10.45
2023-06-21T00:19:44.991Z,10.20
2023-06-21T00:22:11.711Z,10.27
2023-06-21T00:24:40.357Z,11.02
2023-06-21T00:27:07.268Z,10.45
2023-06-21T00:29:33.995Z,10.15
2023-06-21T00:32:01.190Z,10.68
2023-06-21T00:34:27.947Z,11.47
2023-06-21T00:36:56.960Z,10.07
2023-06-21T00:39:23.864Z,13.85
2023-06-21T00:41:50.600Z,16.67
2023-06-21T00:44:17.316Z,16.65
2023-06-21T00:46:44.036Z,15.97
2023-06-21T00:49:11.057Z,13.07
2023-06-21T00:51:39.471Z,11.32
2023-06-21T00:54:07.169Z,11.25
2023-06-21T00:56:37.374Z,10.50
2023-06-21T00:59:05.724Z,10.43
2023-06-21T01:01:33.106Z,10.57
2023-06-21T01:04:02.680Z,10.15
2023-06-21T01:06:35.857Z,10.32
2023-06-21T01:09:24.346Z,10.18
2023-06-21T01:12:06.202Z,11.83
2023-06-21T01:14:57.264Z,12.85
2023-06-21T01:17:26.869Z,11.43
2023-06-21T01:19:56.811Z,10.80
2023-06-21T01:22:23.483Z,11.18
2023-06-21T01:25:05.969Z,11.27
2023-06-21T01:27:55.093Z,11.82
2023-06-21T01:30:23.657Z,11.23
2023-06-21T01:32:54.958Z,11.32
2023-06-21T01:35:25.487Z,11.00
2023-06-21T01:37:52.933Z,11.53
2023-06-21T01:40:20.882Z,10.98
2023-06-21T01:42:50.210Z,11.45
2023-06-21T01:45:17.459Z,11.32
2023-06-21T01:47:45.528Z,11.38
2023-06-21T01:50:14.002Z,11.60
2023-06-21T01:52:41.565Z,11.52
2023-06-21T01:55:09.736Z,11.98
2023-06-21T01:57:40.884Z,11.82
2023-06-21T02:00:19.680Z,11.50
2023-06-21T02:03:07.741Z,11.10
2023-06-21T02:05:35.771Z,11.15
2023-06-21T02:08:06.028Z,12.30
2023-06-21T02:10:33.175Z,11.70
2023-06-21T02:13:00.137Z,11.40
2023-06-21T02:15:29.580Z,12.47
2023-06-21T02:17:56.532Z,11.63
2023-06-21T02:20:23.826Z,11.20
2023-06-21T02:22:50.803Z,10.85
2023-06-21T02:25:18.374Z,11.13
2023-06-21T02:27:45.325Z,11.40
2023-06-21T02:30:12.348Z,12.07
2023-06-21T02:32:39.223Z,11.95
2023-06-21T02:35:07.109Z,11.77
2023-06-21T02:37:33.908Z,11.75
2023-06-21T02:40:00.768Z,10.97
2023-06-21T02:42:28.847Z,10.52
2023-06-21T02:44:55.604Z,11.38
2023-06-21T02:47:22.414Z,11.13
2023-06-21T02:49:49.194Z,11.45
2023-06-21T02:52:16.018Z,11.77
2023-06-21T02:54:42.772Z,12.07
2023-06-21T02:57:12.466Z,11.50
2023-06-21T02:59:39.521Z,11.07
2023-06-21T03:02:06.536Z,10.75
2023-06-21T03:04:33.291Z,11.00
2023-06-21T03:07:02.620Z,10.98
2023-06-21T03:09:29.967Z,11.40
2023-06-21T03:11:56.927Z,11.30
2023-06-21T03:14:23.770Z,11.32
2023-06-21T03:16:51.026Z,10.73
2023-06-21T03:19:20.210Z,11.35
2023-06-21T03:21:46.926Z,10.82
2023-06-21T03:24:13.824Z,10.88
2023-06-21T03:26:40.618Z,10.25
2023-06-21T03:29:08.002Z,11.03
2023-06-21T03:31:35.784Z,10.43
2023-06-21T03:34:02.601Z,10.82
2023-06-21T03:36:29.889Z,10.55
2023-06-21T03:38:56.958Z,10.50
2023-06-21T03:41:23.786Z,10.13
2023-06-21T03:43:50.594Z,9.68
2023-06-21T03:46:18.158Z,9.63
2023-06-21T03:48:46.049Z,9.80
2023-06-21T03:51:14.988Z,10.10
2023-06-21T03:53:41.751Z,9.77
2023-06-21T03:56:09.788Z,9.98
2023-06-21T03:58:36.547Z,9.18
2023-06-21T04:01:04.856Z,9.68
2023-06-21T04:03:31.622Z,9.52
2023-06-21T04:05:58.334Z,9.60
2023-06-21T04:08:25.053Z,9.45
2023-06-21T04:10:51.804Z,9.55
2023-06-21T04:13:19.028Z,8.85
2023-06-21T04:15:45.837Z,8.45
2023-06-21T04:18:12.551Z,9.03
2023-06-21T04:20:39.299Z,8.43
2023-06-21T04:23:06.513Z,8.57
2023-06-21T04:25:33.209Z,8.55
2023-06-21T04:27:59.942Z,9.07
2023-06-21T04:30:29.840Z,8.70
2023-06-21T04:32:56.792Z,8.77
2023-06-21T04:35:23.652Z,9.10
2023-06-21T04:37:51.190Z,8.68
2023-06-21T04:40:23.645Z,8.93
2023-06-21T04:42:59.176Z,8.40
2023-06-21T04:45:28.145Z,9.13
2023-06-21T04:47:59.468Z,9.63
2023-06-21T04:50:26.885Z,9.23
2023-06-21T04:52:59.357Z,8.50
2023-06-21T04:55:27.912Z,8.43
2023-06-21T04:57:55.269Z,7.35
2023-06-21T05:00:22.138Z,9.38
2023-06-21T05:02:49.111Z,9.05
2023-06-21T05:05:16.365Z,9.02
2023-06-21T05:07:45.112Z,10.33
2023-06-21T05:10:11.999Z,8.88
2023-06-21T05:12:38.915Z,8.57
2023-06-21T05:15:07.245Z,8.82
2023-06-21T05:17:35.386Z,9.43
2023-06-21T05:20:06.098Z,9.20
2023-06-21T05:22:33.394Z,9.55
2023-06-21T05:25:03.124Z,9.43
2023-06-21T05:27:31.830Z,8.68
2023-06-21T05:30:01.783Z,8.52
2023-06-21T05:32:28.810Z,8.90
2023-06-21T05:35:01.301Z,9.95
2023-06-21T05:37:28.150Z,8.60
2023-06-21T05:40:01.890Z,8.70
2023-06-21T05:42:28.805Z,9.18
2023-06-21T05:44:57.992Z,8.97
2023-06-21T05:47:24.971Z,8.60
2023-06-21T05:49:54.734Z,9.32
2023-06-21T05:52:24.315Z,9.65
2023-06-21T05:54:51.063Z,8.85
2023-06-21T05:57:17.842Z,9.27
2023-06-21T05:59:44.774Z,9.30
2023-06-21T06:02:14.082Z,9.32
2023-06-21T06:04:43.097Z,9.80
2023-06-21T06:07:09.873Z,10.10
2023-06-21T06:09:41.404Z,9.80
2023-06-21T06:12:10.062Z,9.95
2023-06-21T06:14:37.188Z,9.32
2023-06-21T06:17:04.209Z,9.55
2023-06-21T06:19:30.948Z,10.00
2023-06-21T06:21:57.702Z,9.33
2023-06-21T06:24:24.415Z,9.68
2023-06-21T06:26:51.189Z,9.95
2023-06-21T06:29:17.899Z,10.45
2023-06-21T06:31:44.744Z,10.32
2023-06-21T06:34:11.630Z,10.33
2023-06-21T06:36:38.494Z,10.30
2023-06-21T06:39:07.408Z,10.48
2023-06-21T06:41:34.185Z,9.70
2023-06-21T06:44:00.987Z,10.18
2023-06-21T06:46:28.132Z,9.80
2023-06-21T06:48:56.647Z,9.85
2023-06-21T06:51:23.418Z,9.48
2023-06-21T06:53:50.243Z,10.02
2023-06-21T06:56:17.234Z,9.65
2023-06-21T06:58:43.984Z,9.83
2023-06-21T07:01:11.398Z,10.10
2023-06-21T07:03:38.193Z,10.25
2023-06-21T07:06:05.076Z,9.95
2023-06-21T07:08:31.835Z,10.25
2023-06-21T07:10:58.736Z,9.10
2023-06-21T07:13:28.337Z,9.70
2023-06-21T07:15:55.337Z,10.40
2023-06-21T07:18:22.131Z,10.32
2023-06-21T07:20:48.980Z,10.60
2023-06-21T07:23:15.852Z,10.10
2023-06-21T07:25:42.739Z,10.88
2023-06-21T07:28:12.188Z,10.52
2023-06-21T07:30:38.941Z,9.88
2023-06-21T07:33:09.640Z,10.60
2023-06-21T07:35:39.015Z,10.20
2023-06-21T07:38:08.089Z,9.98
2023-06-21T07:40:34.883Z,10.50
2023-06-21T07:43:01.577Z,9.88
2023-06-21T07:45:28.690Z,9.85
2023-06-21T07:47:55.777Z,9.93
2023-06-21T07:50:24.444Z,10.00
2023-06-21T07:52:51.265Z,9.93
2023-06-21T07:55:18.148Z,10.27
2023-06-21T07:57:45.062Z,10.38
2023-06-21T08:00:13.823Z,10.23
2023-06-21T08:02:50.949Z,10.35
2023-06-21T08:05:18.139Z,10.40
2023-06-21T08:07:45.131Z,9.98
2023-06-21T08:10:14.874Z,9.60
2023-06-21T08:12:41.643Z,9.83
2023-06-21T08:15:08.975Z,10.35
2023-06-21T08:17:35.821Z,10.60
2023-06-21T08:20:04.362Z,10.98
2023-06-21T08:22:31.331Z,10.43
2023-06-21T08:24:58.224Z,11.27
2023-06-21T08:27:26.146Z,10.73
2023-06-21T08:29:52.835Z,11.52
2023-06-21T08:32:22.818Z,11.52
2023-06-21T08:34:53.890Z,12.07
2023-06-21T08:37:26.229Z,10.30
2023-06-21T08:39:53.818Z,11.80
2023-06-21T08:42:21.402Z,12.48
2023-06-21T08:44:48.255Z,13.25
2023-06-21T08:47:15.865Z,12.00
2023-06-21T08:49:43.173Z,12.13
2023-06-21T08:52:15.109Z,11.23
2023-06-21T08:54:46.381Z,12.80
2023-06-21T08:57:23.538Z,11.43
2023-06-21T09:00:03.148Z,12.65
2023-06-21T09:02:45.304Z,12.93
2023-06-21T09:05:22.156Z,12.88
2023-06-21T09:07:49.058Z,11.70
2023-06-21T09:10:18.063Z,12.43
2023-06-21T09:12:46.575Z,13.27
2023-06-21T09:15:15.065Z,12.43
2023-06-21T09:17:43.899Z,12.80
2023-06-21T09:20:14.425Z,12.63
2023-06-21T09:22:42.093Z,9.23
2023-06-21T09:25:09.200Z,9.48
2023-06-21T09:27:36.009Z,9.00
2023-06-21T09:30:11.755Z,9.00
2023-06-21T09:32:50.712Z,9.38
2023-06-21T09:35:17.724Z,9.70
2023-06-21T09:37:45.906Z,9.95
2023-06-21T09:40:14.837Z,9.20
2023-06-21T09:42:42.904Z,8.85
2023-06-21T09:45:11.324Z,9.65
2023-06-21T09:47:41.754Z,9.40
2023-06-21T09:50:09.957Z,9.68
2023-06-21T09:52:37.218Z,9.87
2023-06-21T09:55:05.187Z,10.05
2023-06-21T09:57:33.744Z,10.38
2023-06-21T10:00:01.438Z,9.88
2023-06-21T10:02:28.843Z,9.95
2023-06-21T10:04:55.961Z,9.73
2023-06-21T10:07:23.729Z,9.73
2023-06-21T10:09:51.595Z,9.90
2023-06-21T10:12:18.936Z,9.00
2023-06-21T10:14:45.722Z,9.35
2023-06-21T10:17:13.285Z,9.73
2023-06-21T10:19:44.297Z,9.65
2023-06-21T10:22:19.546Z,9.15
2023-06-21T10:24:53.769Z,9.73
2023-06-21T10:27:23.893Z,8.05
2023-06-21T10:29:58.772Z,9.30
2023-06-21T10:32:26.587Z,9.02
2023-06-21T10:35:07.367Z,9.25
2023-06-21T10:37:57.943Z,8.30
2023-06-21T10:40:27.089Z,7.63
2023-06-21T10:42:57.183Z,7.87
2023-06-21T10:45:25.022Z,8.73
2023-06-21T10:47:55.099Z,8.07
2023-06-21T10:50:24.003Z,8.52
2023-06-21T10:52:59.073Z,8.30
2023-06-21T10:55:25.963Z,8.33
2023-06-21T10:57:54.517Z,8.10
2023-06-21T11:00:24.069Z,7.93
2023-06-21T11:02:54.708Z,8.00
2023-06-21T11:05:27.091Z,7.30
2023-06-21T11:07:58.831Z,6.70
2023-06-21T11:10:37.383Z,7.15
2023-06-21T11:13:04.211Z,7.75
2023-06-21T11:15:35.075Z,7.30
2023-06-21T11:18:04.113Z,7.57
2023-06-21T11:20:34.353Z,7.60
2023-06-21T11:23:07.979Z,7.50
2023-06-21T11:25:37.868Z,7.28
2023-06-21T11:28:25.726Z,6.10
2023-06-21T11:31:01.887Z,6.47
2023-06-21T11:33:30.655Z,7.07
2023-06-21T11:36:04.733Z,7.20
2023-06-21T11:38:31.847Z,6.78
2023-06-21T11:40:59.632Z,6.78
2023-06-21T11:43:27.247Z,4.88
2023-06-21T11:46:04.806Z,5.37
2023-06-21T11:48:32.208Z,6.05
2023-06-21T11:51:10.706Z,5.07
2023-06-21T11:53:42.558Z,4.00
2023-06-21T11:56:10.802Z,5.70
2023-06-21T11:58:37.782Z,5.93
2023-06-21T12:01:14.864Z,5.95
2023-06-21T12:03:41.996Z,5.70
2023-06-21T12:06:08.956Z,5.50
2023-06-21T12:08:38.840Z,5.20
2023-06-21T12:11:09.973Z,5.13
2023-06-21T12:13:38.437Z,6.18
2023-06-21T12:16:07.868Z,5.93
2023-06-21T12:18:37.507Z,6.95
2023-06-21T12:21:08.602Z,6.45
2023-06-21T12:23:35.569Z,7.80
2023-06-21T12:26:04.639Z,8.65
2023-06-21T12:28:32.834Z,7.47
2023-06-21T12:31:02.615Z,7.65
2023-06-21T12:33:30.170Z,7.90
2023-06-21T12:36:19.529Z,8.77
2023-06-21T12:39:06.419Z,7.30
2023-06-21T12:41:40.270Z,8.90
2023-06-21T12:44:08.771Z,8.43
2023-06-21T12:46:40.821Z,7.90
2023-06-21T12:49:08.045Z,7.83
2023-06-21T12:51:37.823Z,7.53
2023-06-21T12:54:21.593Z,7.28
2023-06-21T12:56:51.240Z,7.13
2023-06-21T12:59:19.313Z,7.60
2023-06-21T13:01:46.366Z,8.17
2023-06-21T13:04:15.941Z,7.45
2023-06-21T13:06:43.678Z,7.03
2023-06-21T13:09:11.716Z,6.78
2023-06-21T13:11:39.366Z,7.30
2023-06-21T13:14:06.916Z,7.17
2023-06-21T13:16:35.032Z,7.25
2023-06-21T13:19:01.790Z,7.50
2023-06-21T13:21:29.350Z,6.72
2023-06-21T13:23:58.187Z,7.45
2023-06-21T13:26:25.091Z,7.20
2023-06-21T13:28:52.256Z,7.35
2023-06-21T13:31:24.730Z,7.63
2023-06-21T13:33:54.730Z,7.25
2023-06-21T13:36:22.084Z,8.05
2023-06-21T13:38:48.800Z,8.23
2023-06-21T13:41:15.584Z,7.93
2023-06-21T13:43:42.323Z,7.90
2023-06-21T13:46:09.199Z,7.45
2023-06-21T13:48:36.329Z,7.80
2023-06-21T13:51:03.267Z,7.90
2023-06-21T13:53:30.203Z,7.22
2023-06-21T13:55:58.107Z,6.93
2023-06-21T13:58:26.972Z,7.13
2023-06-21T14:00:53.837Z,7.05
2023-06-21T14:03:20.656Z,6.70
2023-06-21T14:05:49.313Z,7.13
2023-06-21T14:08:16.047Z,6.80
2023-06-21T14:10:42.755Z,7.38
2023-06-21T14:13:14.915Z,7.20
2023-06-21T14:15:41.909Z,7.90
2023-06-21T14:18:10.955Z,7.20
2023-06-21T14:20:37.889Z,7.38
2023-06-21T14:23:04.656Z,6.90
2023-06-21T14:25:31.423Z,7.13
2023-06-21T14:27:58.205Z,6.90
2023-06-21T14:30:24.936Z,7.10
2023-06-21T14:32:51.749Z,7.00
2023-06-21T14:35:19.716Z,7.15
2023-06-21T14:37:48.618Z,7.22
2023-06-21T14:40:15.417Z,7.00
2023-06-21T14:42:42.154Z,6.97
2023-06-21T14:45:11.634Z,7.38
2023-06-21T14:47:39.088Z,7.20
2023-06-21T14:50:06.401Z,7.40
2023-06-21T14:52:36.496Z,7.37
2023-06-21T14:55:03.567Z,7.22
2023-06-21T14:57:33.927Z,7.93
2023-06-21T15:00:00.685Z,8.15
2023-06-21T15:02:27.513Z,7.63
2023-06-21T15:04:54.343Z,7.40
2023-06-21T15:07:21.137Z,7.60
2023-06-21T15:09:47.921Z,7.53
2023-06-21T15:12:14.658Z,8.07
2023-06-21T15:14:41.540Z,7.40
2023-06-21T15:17:08.845Z,6.93
2023-06-21T15:19:35.649Z,7.70
2023-06-21T15:22:02.395Z,7.50
2023-06-21T15:24:29.121Z,7.72
2023-06-21T15:26:55.828Z,7.95
2023-06-21T15:29:22.541Z,8.80
2023-06-21T15:31:49.549Z,8.50
2023-06-21T15:34:16.399Z,8.10
2023-06-21T15:36:44.302Z,7.40
2023-06-21T15:39:11.100Z,7.50
2023-06-21T15:41:38.411Z,9.33
2023-06-21T15:44:06.216Z,8.10
2023-06-21T15:46:35.581Z,7.68
2023-06-21T15:49:05.266Z,7.85
2023-06-21T15:51:31.962Z,9.05
2023-06-21T15:53:58.757Z,8.60
2023-06-21T15:56:26.443Z,8.15
2023-06-21T15:58:54.000Z,8.32
2023-06-21T16:01:22.893Z,7.70
2023-06-21T16:03:51.069Z,7.63
2023-06-21T16:06:19.217Z,7.70
2023-06-21T16:08:47.536Z,6.88
2023-06-21T16:11:16.220Z,6.88
2023-06-21T16:16:13.258Z,7.18
2023-06-21T16:18:40.010Z,7.23
2023-06-21T16:21:06.718Z,7.60
2023-06-21T16:23:34.363Z,7.47
2023-06-21T16:26:03.711Z,7.32
2023-06-21T16:28:30.813Z,8.05
2023-06-21T16:30:57.512Z,6.90
2023-06-21T16:33:24.321Z,6.70
2023-06-21T16:35:52.753Z,6.72
2023-06-21T16:38:22.526Z,7.05
2023-06-21T16:40:49.915Z,7.28
2023-06-21T16:43:18.074Z,6.63
2023-06-21T16:45:45.135Z,7.05
2023-06-21T16:48:12.182Z,8.05
2023-06-21T16:50:39.148Z,7.38
2023-06-21T16:53:05.997Z,6.93
2023-06-21T16:55:32.901Z,6.50
2023-06-21T16:58:00.262Z,6.78
2023-06-21T17:00:31.293Z,6.82
2023-06-21T17:03:00.772Z,7.18
2023-06-21T17:05:29.656Z,6.65
2023-06-21T17:07:56.620Z,7.20
2023-06-21T17:10:23.359Z,7.28
2023-06-21T17:12:50.111Z,7.60
2023-06-21T17:15:17.041Z,7.10
2023-06-21T17:17:44.941Z,8.07
2023-06-21T17:20:12.248Z,6.83
2023-06-21T17:22:39.324Z,6.60
2023-06-21T17:25:06.565Z,7.75
2023-06-21T17:27:35.981Z,7.72
2023-06-21T17:30:04.013Z,7.45
2023-06-21T17:32:33.992Z,6.87
2023-06-21T17:35:00.873Z,7.32
2023-06-21T17:37:28.763Z,7.45
2023-06-21T17:39:56.553Z,7.43
2023-06-21T17:42:23.730Z,8.07
2023-06-21T17:44:50.452Z,7.87
2023-06-21T17:47:17.232Z,9.10
2023-06-21T17:49:43.961Z,9.43
2023-06-21T17:52:10.754Z,8.88
2023-06-21T17:54:38.043Z,8.55
2023-06-21T17:57:06.449Z,7.33
2023-06-21T17:59:33.256Z,7.05
2023-06-21T18:02:00.133Z,7.32
2023-06-21T18:04:26.892Z,7.03
2023-06-21T18:06:53.716Z,7.70
2023-06-21T18:09:23.295Z,8.03
2023-06-21T18:11:50.129Z,7.57
2023-06-21T18:14:16.918Z,7.13
2023-06-21T18:16:43.623Z,8.43
2023-06-21T18:19:10.349Z,8.75
2023-06-21T18:21:37.104Z,8.43
2023-06-21T18:24:11.334Z,8.30
2023-06-21T18:26:38.450Z,7.10
2023-06-21T18:29:07.918Z,7.70
2023-06-21T18:31:34.779Z,7.85
2023-06-21T18:34:01.723Z,8.00
2023-06-21T18:36:28.681Z,6.90
2023-06-21T18:38:56.352Z,7.03
2023-06-21T18:41:23.190Z,7.22
2023-06-21T18:43:50.079Z,7.30
2023-06-21T18:46:19.476Z,9.03
2023-06-21T18:48:50.702Z,9.85
2023-06-21T18:51:17.609Z,9.43
2023-06-21T18:53:44.423Z,8.15
2023-06-21T18:56:11.233Z,8.77
2023-06-21T18:58:41.139Z,7.73
2023-06-21T19:01:07.908Z,8.48
2023-06-21T19:03:34.882Z,7.30
2023-06-21T19:06:02.149Z,7.50
2023-06-21T19:08:28.938Z,7.43
2023-06-21T19:10:55.635Z,7.33
2023-06-21T19:13:22.405Z,7.85
2023-06-21T19:15:49.219Z,7.53
2023-06-21T19:18:16.067Z,7.68
2023-06-21T19:20:42.806Z,8.43
2023-06-21T19:23:09.541Z,8.90
2023-06-21T19:25:36.446Z,9.15
2023-06-21T19:28:03.296Z,8.48
2023-06-21T19:30:30.462Z,8.27
2023-06-21T19:33:00.201Z,10.43
2023-06-21T19:35:30.156Z,14.57
2023-06-21T19:37:56.898Z,14.85
2023-06-21T19:40:24.238Z,10.52
2023-06-21T19:42:52.180Z,10.77
2023-06-21T19:45:19.283Z,10.15
2023-06-21T19:47:48.095Z,10.00
2023-06-21T19:50:14.986Z,10.55
2023-06-21T19:52:42.010Z,10.93
2023-06-21T19:55:09.385Z,9.93
2023-06-21T19:57:36.250Z,8.80
2023-06-21T20:00:04.412Z,8.57
2023-06-21T20:02:31.224Z,9.13
2023-06-21T20:04:58.124Z,8.82
2023-06-21T20:07:25.101Z,8.88
2023-06-21T20:09:52.738Z,8.18
2023-06-21T20:12:19.562Z,9.10
2023-06-21T20:14:46.440Z,9.00
2023-06-21T20:17:13.977Z,9.18
2023-06-21T20:19:40.840Z,8.90
2023-06-21T20:22:07.614Z,9.40
2023-06-21T20:24:34.359Z,8.90
2023-06-21T20:27:04.019Z,9.02
2023-06-21T20:29:32.341Z,9.35
2023-06-21T20:31:59.365Z,9.57
2023-06-21T20:34:26.184Z,9.05
2023-06-21T20:36:55.048Z,8.93
2023-06-21T20:39:22.452Z,9.02
2023-06-21T20:41:49.302Z,9.52
2023-06-21T20:44:16.808Z,9.75
2023-06-21T20:46:44.823Z,8.75
2023-06-21T20:49:13.737Z,9.87
2023-06-21T20:51:43.274Z,8.60
2023-06-21T20:54:13.095Z,8.15
2023-06-21T20:56:40.544Z,9.35
2023-06-21T20:59:08.259Z,8.27
2023-06-21T21:01:39.578Z,8.57
2023-06-21T21:04:08.646Z,8.98
2023-06-21T21:06:38.626Z,8.55
2023-06-21T21:09:05.829Z,9.20
2023-06-21T21:11:32.581Z,8.68
2023-06-21T21:14:01.625Z,8.23
2023-06-21T21:16:29.565Z,8.40
2023-06-21T21:18:58.538Z,8.70
2023-06-21T21:21:25.381Z,7.95
2023-06-21T21:23:52.159Z,8.32
2023-06-21T21:26:19.056Z,8.27
2023-06-21T21:28:46.128Z,8.40
2023-06-21T21:31:14.570Z,7.85
2023-06-21T21:33:42.066Z,7.60
2023-06-21T21:36:09.070Z,8.20
2023-06-21T21:38:35.954Z,7.87
2023-06-21T21:41:02.761Z,7.93
2023-06-21T21:43:29.492Z,7.80
2023-06-21T21:45:56.232Z,7.97
2023-06-21T21:48:23.106Z,8.73
2023-06-21T21:50:52.400Z,8.13
2023-06-21T21:53:19.205Z,8.02
2023-06-21T21:55:48.536Z,8.05
2023-06-21T21:58:15.333Z,7.40
2023-06-21T22:00:42.082Z,8.45
2023-06-21T22:03:09.358Z,8.30
2023-06-21T22:05:37.572Z,7.88
2023-06-21T22:08:04.584Z,7.95
2023-06-21T22:10:39.308Z,7.35
2023-06-21T22:13:12.753Z,8.68
2023-06-21T22:15:52.712Z,7.93
2023-06-21T22:18:28.943Z,7.00
2023-06-21T22:20:58.643Z,7.90
2023-06-21T22:23:32.048Z,6.70
2023-06-21T22:26:00.263Z,7.60
2023-06-21T22:28:30.027Z,6.63
2023-06-21T22:30:57.506Z,7.53
2023-06-21T22:33:25.425Z,7.18
2023-06-21T22:35:52.403Z,6.88
2023-06-21T22:38:21.104Z,6.95
2023-06-21T22:40:48.436Z,7.10
2023-06-21T22:43:16.790Z,7.40
2023-06-21T22:45:45.089Z,7.22
2023-06-21T22:48:14.823Z,7.30
2023-06-21T22:50:44.066Z,7.65
2023-06-21T22:53:11.352Z,7.23
2023-06-21T22:55:38.223Z,7.70
2023-06-21T22:58:05.639Z,7.43
2023-06-21T23:00:32.467Z,7.43
2023-06-21T23:02:59.627Z,6.90
2023-06-21T23:05:28.737Z,7.50
2023-06-21T23:07:55.456Z,5.93
2023-06-21T23:10:22.357Z,6.30
2023-06-21T23:12:51.868Z,6.70
2023-06-21T23:15:20.433Z,6.70
2023-06-21T23:17:47.507Z,6.33
2023-06-21T23:20:17.179Z,7.03
2023-06-21T23:22:45.739Z,6.68
2023-06-21T23:25:16.493Z,7.55
2023-06-21T23:27:44.920Z,7.07
2023-06-21T23:30:35.221Z,7.47
2023-06-21T23:33:03.724Z,7.45
2023-06-21T23:35:39.023Z,7.38
2023-06-21T23:38:09.268Z,7.20
2023-06-21T23:40:37.645Z,7.65
2023-06-21T23:43:04.831Z,7.40
2023-06-21T23:45:31.639Z,7.22
2023-06-21T23:47:58.533Z,7.03
2023-06-21T23:50:25.338Z,7.35
2023-06-21T23:52:52.135Z,6.75
2023-06-21T23:55:19.126Z,6.53
2023-06-21T23:57:46.017Z,5.70
